Time;durP1;ratioP1;P1;durP2;ratioP2;P2;SDS_P1;SDS_P2;PMS_P1;PMS_P2;Temp;Humidity;BMP_temperature;BMP_pressure;BME280_temperature;BME280_humidity;BME280_pressure;Samples;Min_cycle;Max_cycle;Signal;HPM_P1;HPM_P2
2022/05/04 00:01:41;;;;;;;10.40;3.10;;;6.40;99.90;;;;;;5045190;28;20105;-89
2022/05/04 00:04:07;;;;;;;8.18;3.30;;;6.30;1.00;;;;;;5044127;28;20170;-89
2022/05/04 00:06:32;;;;;;;10.07;3.50;;;6.30;1.00;;;;;;5037044;28;20049;-88
2022/05/04 00:08:58;;;;;;;9.43;3.50;;;6.30;1.00;;;;;;5035958;28;20029;-88
2022/05/04 00:11:24;;;;;;;11.05;3.65;;;6.30;1.00;;;;;;5041090;28;20078;-88
2022/05/04 00:13:52;;;;;;;13.00;3.47;;;6.40;99.90;;;;;;5044419;28;20174;-88
2022/05/04 00:16:18;;;;;;;8.40;3.08;;;6.40;1.00;;;;;;5061507;28;20127;-88
2022/05/04 00:18:44;;;;;;;8.10;3.35;;;6.40;1.00;;;;;;5039948;28;20045;-89
2022/05/04 00:21:09;;;;;;;9.30;3.58;;;6.30;1.00;;;;;;5019006;28;20050;-88
2022/05/04 00:23:35;;;;;;;10.98;4.00;;;6.30;1.00;;;;;;5016816;28;20048;-87
2022/05/04 00:26:01;;;;;;;12.40;3.58;;;6.40;99.90;;;;;;5022575;28;20078;-89
2022/05/04 00:28:27;;;;;;;11.23;3.88;;;6.40;99.90;;;;;;5022707;28;20390;-88
2022/05/04 00:30:59;;;;;;;11.07;3.33;;;6.50;99.90;;;;;;5021922;28;20052;-89
2022/05/04 00:33:24;;;;;;;8.45;3.28;;;6.40;1.00;;;;;;5016857;28;20044;-89
2022/05/04 00:35:50;;;;;;;10.13;3.25;;;6.40;1.00;;;;;;5020658;28;20036;-88
2022/05/04 00:38:16;;;;;;;7.10;3.58;;;6.40;1.00;;;;;;5017505;28;20044;-88
2022/05/04 00:40:41;;;;;;;8.15;3.50;;;6.40;1.00;;;;;;5019023;28;20045;-88
2022/05/04 00:43:25;;;;;;;9.52;3.20;;;6.40;1.00;;;;;;5017842;28;20040;-88
2022/05/04 00:45:51;;;;;;;9.77;3.20;;;6.40;1.00;;;;;;5035558;28;20045;-89
2022/05/04 00:48:17;;;;;;;12.43;3.85;;;6.40;1.00;;;;;;5052871;28;20513;-88
2022/05/04 00:50:44;;;;;;;9.05;3.53;;;6.50;99.90;;;;;;5037106;28;20040;-89
2022/05/04 00:53:11;;;;;;;8.00;3.60;;;6.50;1.00;;;;;;5023882;28;20546;-88
2022/05/04 00:55:38;;;;;;;9.25;3.47;;;6.50;1.00;;;;;;5018663;28;20454;-88
2022/05/04 01:00:51;;;;;;;10.82;3.25;;;6.50;1.00;;;;;;5031045;28;20040;-89
2022/05/04 01:03:17;;;;;;;8.35;3.67;;;6.50;1.00;;;;;;5020244;28;20295;-86
2022/05/04 01:05:43;;;;;;;9.32;3.30;;;6.50;1.00;;;;;;5022142;28;20025;-88
2022/05/04 01:08:09;;;;;;;10.55;3.58;;;6.50;1.00;;;;;;5018675;28;20045;-89
2022/05/04 01:10:34;;;;;;;7.53;3.50;;;6.50;1.00;;;;;;5016243;28;20047;-89
2022/05/04 01:13:03;;;;;;;11.98;4.15;;;6.60;1.00;;;;;;5021263;28;20029;-87
2022/05/04 01:15:28;;;;;;;10.57;3.80;;;6.50;1.00;;;;;;5016021;28;20108;-88
2022/05/04 01:17:54;;;;;;;7.20;3.35;;;6.60;1.00;;;;;;5017450;28;21275;-89
2022/05/04 01:20:24;;;;;;;10.00;3.40;;;6.50;1.00;;;;;;5038399;28;20048;-87
2022/05/04 01:22:50;;;;;;;12.10;3.50;;;6.60;1.00;;;;;;5057269;28;20036;-89
2022/05/04 01:25:16;;;;;;;10.57;4.45;;;6.60;1.00;;;;;;5056106;28;20055;-88
2022/05/04 01:27:45;;;;;;;12.35;3.72;;;6.60;1.00;;;;;;5051146;28;20043;-89
2022/05/04 01:30:12;;;;;;;13.13;4.05;;;6.50;1.00;;;;;;5057243;28;20058;-89
2022/05/04 01:32:38;;;;;;;8.93;3.88;;;6.60;1.00;;;;;;5051353;28;20041;-88
2022/05/04 01:35:04;;;;;;;13.80;4.28;;;6.60;1.00;;;;;;5034842;28;20128;-87
2022/05/04 01:37:30;;;;;;;9.05;3.53;;;6.60;1.00;;;;;;5038783;28;20352;-88
2022/05/04 01:39:56;;;;;;;9.70;4.15;;;6.60;1.00;;;;;;5051620;28;20040;-88
2022/05/04 01:42:24;;;;;;;10.18;3.80;;;6.50;37.90;;;;;;5032897;28;20032;-88
2022/05/04 01:44:51;;;;;;;9.13;3.85;;;6.50;1.00;;;;;;5051798;28;20106;-89
2022/05/04 01:47:17;;;;;;;13.05;3.95;;;6.50;1.00;;;;;;5039681;28;20482;-88
2022/05/04 01:49:48;;;;;;;10.02;3.60;;;6.50;1.00;;;;;;5073925;28;20035;-89
2022/05/04 01:52:14;;;;;;;11.63;3.95;;;6.60;1.00;;;;;;5038993;28;20566;-88
2022/05/04 01:54:40;;;;;;;13.32;3.90;;;6.60;1.00;;;;;;5042788;28;20150;-88
2022/05/04 01:57:06;;;;;;;12.90;3.67;;;6.60;1.00;;;;;;5039422;28;20906;-88
2022/05/04 01:59:31;;;;;;;15.18;4.13;;;6.60;1.00;;;;;;5040850;28;20391;-88
2022/05/04 02:01:58;;;;;;;9.85;3.60;;;6.60;1.00;;;;;;5040724;28;20040;-89
2022/05/04 02:04:24;;;;;;;10.65;3.85;;;6.60;1.00;;;;;;5037582;28;20036;-89
2022/05/04 02:06:52;;;;;;;14.18;4.22;;;6.60;1.00;;;;;;5040081;28;20040;-87
2022/05/04 02:09:18;;;;;;;9.98;3.70;;;6.60;1.00;;;;;;5036978;28;20058;-88
2022/05/04 02:11:44;;;;;;;12.48;4.10;;;6.60;1.00;;;;;;5038622;28;20497;-88
2022/05/04 02:14:10;;;;;;;11.48;3.90;;;6.70;1.00;;;;;;5037772;28;20059;-89
2022/05/04 02:16:35;;;;;;;10.10;4.15;;;6.70;99.90;;;;;;5038232;28;20560;-89
2022/05/04 02:19:01;;;;;;;13.82;3.70;;;6.80;99.90;;;;;;5037215;28;20363;-89
2022/05/04 02:21:27;;;;;;;9.63;3.58;;;6.70;1.00;;;;;;5041609;28;20547;-88
2022/05/04 02:23:52;;;;;;;13.32;4.03;;;6.70;1.00;;;;;;5049862;28;20068;-88
2022/05/04 02:26:18;;;;;;;15.73;4.72;;;6.70;1.00;;;;;;5039351;28;20689;-88
2022/05/04 02:28:44;;;;;;;10.02;3.80;;;6.70;1.00;;;;;;5050514;28;20061;-89
2022/05/04 02:31:10;;;;;;;10.57;4.20;;;6.70;1.00;;;;;;5036318;28;20049;-89
2022/05/04 02:33:36;;;;;;;9.68;3.67;;;6.70;1.00;;;;;;5056729;28;20103;-89
2022/05/04 02:38:47;;;;;;;12.77;3.78;;;6.70;1.00;;;;;;5073275;28;20115;-88
2022/05/04 02:41:14;;;;;;;11.25;3.90;;;6.80;99.90;;;;;;5036079;28;20402;-88
2022/05/04 02:43:39;;;;;;;12.10;4.07;;;6.80;1.00;;;;;;5031910;28;20207;-88
2022/05/04 02:46:13;;;;;;;10.95;3.80;;;6.70;1.00;;;;;;5041492;28;20207;-88
2022/05/04 02:48:39;;;;;;;9.10;4.22;;;6.70;1.00;;;;;;5040549;28;20072;-88
2022/05/04 02:51:07;;;;;;;15.73;4.30;;;6.80;99.90;;;;;;5031707;28;20129;-88
2022/05/04 02:53:36;;;;;;;8.52;4.03;;;6.80;99.90;;;;;;5049677;28;20060;-87
2022/05/04 02:56:02;;;;;;;12.07;4.38;;;6.80;99.90;;;;;;5038708;28;20112;-88
2022/05/04 02:58:28;;;;;;;10.57;3.88;;;6.80;99.90;;;;;;5041675;28;20084;-88
2022/05/04 03:00:54;;;;;;;10.80;3.63;;;6.70;1.00;;;;;;5043557;28;20047;-88
2022/05/04 03:03:20;;;;;;;10.55;4.60;;;6.70;1.00;;;;;;5053875;28;20047;-88
2022/05/04 03:05:45;;;;;;;10.20;4.35;;;6.70;1.00;;;;;;5039745;28;20424;-88
2022/05/04 03:08:11;;;;;;;11.43;3.92;;;6.70;1.00;;;;;;5037259;28;20040;-88
2022/05/04 03:13:24;;;;;;;10.10;4.07;;;6.80;99.90;;;;;;5056156;28;20127;-88
2022/05/04 03:15:50;;;;;;;9.25;3.92;;;6.80;1.00;;;;;;5043861;28;20132;-88
2022/05/04 03:18:15;;;;;;;7.47;3.38;;;6.70;1.00;;;;;;5040652;28;20040;-88
2022/05/04 03:20:41;;;;;;;11.50;4.13;;;6.80;1.00;;;;;;5045026;28;20052;-89
2022/05/04 03:23:07;;;;;;;9.75;4.38;;;6.70;1.00;;;;;;5059272;28;20067;-89
2022/05/04 03:25:36;;;;;;;10.15;3.55;;;6.70;1.00;;;;;;5056402;28;20063;-88
2022/05/04 03:28:02;;;;;;;9.35;3.90;;;6.70;1.00;;;;;;5045793;28;20036;-88
2022/05/04 03:30:27;;;;;;;8.10;4.15;;;6.70;1.00;;;;;;5045276;28;20104;-88
2022/05/04 03:32:53;;;;;;;8.90;4.18;;;6.70;1.00;;;;;;5044775;28;20032;-88
2022/05/04 03:35:19;;;;;;;10.00;3.90;;;6.70;1.00;;;;;;5041182;28;20115;-87
2022/05/04 03:37:44;;;;;;;7.07;3.50;;;6.70;1.00;;;;;;5044713;28;20055;-88
2022/05/04 03:40:13;;;;;;;10.82;4.28;;;6.70;1.00;;;;;;5058505;28;20040;-89
2022/05/04 03:42:41;;;;;;;10.70;4.00;;;6.80;99.90;;;;;;5039998;28;20290;-89
2022/05/04 03:45:07;;;;;;;10.23;3.85;;;6.80;1.00;;;;;;5062560;28;20038;-88
2022/05/04 03:47:33;;;;;;;9.68;4.00;;;6.80;1.00;;;;;;5063696;28;20067;-89
2022/05/04 03:49:59;;;;;;;9.95;4.03;;;6.80;1.00;;;;;;5047832;28;20051;-88
2022/05/04 03:52:24;;;;;;;11.50;3.90;;;6.80;99.90;;;;;;5038244;28;20031;-88
2022/05/04 03:54:50;;;;;;;10.98;3.88;;;6.90;1.00;;;;;;5061646;28;21445;-87
2022/05/04 03:57:16;;;;;;;9.00;4.30;;;6.80;1.00;;;;;;5043881;28;20039;-88
2022/05/04 03:59:44;;;;;;;9.50;3.92;;;6.80;1.00;;;;;;5061217;28;20039;-88
2022/05/04 04:02:10;;;;;;;9.82;3.88;;;6.70;1.00;;;;;;5044175;28;20186;-88
2022/05/04 04:04:36;;;;;;;7.82;4.05;;;6.60;1.00;;;;;;5044381;28;20143;-87
2022/05/04 04:07:01;;;;;;;11.43;3.75;;;6.70;1.00;;;;;;5041079;28;20218;-89
2022/05/04 04:09:27;;;;;;;13.68;3.88;;;6.80;1.00;;;;;;5045347;28;20578;-89
2022/05/04 04:11:53;;;;;;;12.07;3.85;;;6.90;99.90;;;;;;5044147;28;20127;-88
2022/05/04 04:14:19;;;;;;;8.65;3.80;;;7.00;99.90;;;;;;5047684;28;20036;-87
2022/05/04 04:16:47;;;;;;;9.55;4.10;;;7.00;99.90;;;;;;5048010;28;20231;-88
2022/05/04 04:19:13;;;;;;;9.93;3.60;;;7.00;99.90;;;;;;5040987;28;20110;-88
2022/05/04 04:21:52;;;;;;;10.82;3.92;;;7.10;99.90;;;;;;5042678;28;20044;-89
2022/05/04 04:24:18;;;;;;;9.85;4.10;;;7.10;99.90;;;;;;5046866;28;20040;-89
2022/05/04 04:26:43;;;;;;;14.68;3.95;;;7.10;99.90;;;;;;5045463;28;20055;-89
2022/05/04 04:29:09;;;;;;;8.85;3.88;;;7.10;99.90;;;;;;5041042;28;20077;-88
2022/05/04 04:31:35;;;;;;;10.48;3.30;;;7.20;99.90;;;;;;5038671;28;20159;-87
2022/05/04 04:34:01;;;;;;;10.32;3.67;;;7.20;99.90;;;;;;5047833;28;20111;-87
2022/05/04 04:36:28;;;;;;;7.80;3.22;;;7.20;99.90;;;;;;5062128;28;20032;-88
2022/05/04 04:38:57;;;;;;;11.05;3.83;;;7.20;99.90;;;;;;5054441;28;20044;-87
2022/05/04 04:41:22;;;;;;;7.80;3.17;;;7.20;99.90;;;;;;5058288;28;20036;-89
2022/05/04 04:43:48;;;;;;;7.82;4.05;;;7.20;1.00;;;;;;5043165;28;20051;-88
2022/05/04 04:46:14;;;;;;;8.32;3.95;;;7.20;1.00;;;;;;5058773;28;20178;-89
2022/05/04 04:48:39;;;;;;;11.85;3.22;;;7.20;1.00;;;;;;5043305;28;20144;-87
2022/05/04 04:51:05;;;;;;;10.82;3.75;;;7.30;99.90;;;;;;5041893;28;20028;-87
2022/05/04 04:53:31;;;;;;;8.02;4.05;;;7.30;99.90;;;;;;5042935;28;20111;-88
2022/05/04 04:56:00;;;;;;;8.70;3.55;;;7.40;99.90;;;;;;5041295;28;20047;-88
2022/05/04 04:58:26;;;;;;;9.38;3.80;;;7.40;99.90;;;;;;5056335;28;20700;-87
2022/05/04 05:00:52;;;;;;;10.57;3.80;;;7.50;99.90;;;;;;5043629;28;20032;-88
2022/05/04 05:03:17;;;;;;;8.43;3.80;;;7.50;99.90;;;;;;5042393;28;20112;-88
2022/05/04 05:05:44;;;;;;;10.57;3.90;;;7.50;99.90;;;;;;5042115;28;20051;-90
2022/05/04 05:08:11;;;;;;;8.82;3.90;;;7.50;99.90;;;;;;5052860;28;20028;-88
2022/05/04 05:10:40;;;;;;;12.00;3.83;;;7.60;99.90;;;;;;5045151;28;20044;-89
2022/05/04 05:13:06;;;;;;;8.77;3.67;;;7.60;99.90;;;;;;5057086;28;20044;-88
2022/05/04 05:18:24;;;;;;;6.57;3.72;;;7.70;99.90;;;;;;5073936;28;20040;-88
2022/05/04 05:20:50;;;;;;;11.23;3.75;;;7.70;99.90;;;;;;5037056;28;20567;-89
2022/05/04 05:23:16;;;;;;;9.23;3.28;;;7.70;99.90;;;;;;5058261;28;20403;-87
2022/05/04 05:25:42;;;;;;;9.73;3.70;;;7.80;99.90;;;;;;5040080;28;20047;-88
2022/05/04 05:28:09;;;;;;;10.45;3.50;;;7.70;99.90;;;;;;5040155;28;20501;-89
2022/05/04 05:30:35;;;;;;;7.38;3.20;;;7.80;1.00;;;;;;5054382;28;20447;-88
2022/05/04 05:33:00;;;;;;;12.52;3.13;;;7.90;99.90;;;;;;5044195;28;20525;-91
2022/05/04 05:35:26;;;;;;;8.07;2.72;;;7.90;99.90;;;;;;5046073;28;20062;-89
2022/05/04 05:37:52;;;;;;;9.13;3.03;;;8.00;99.90;;;;;;5044200;28;20477;-89
2022/05/04 05:40:18;;;;;;;13.63;3.40;;;8.00;99.90;;;;;;5057500;28;20036;-90
2022/05/04 05:42:44;;;;;;;7.63;3.05;;;8.10;99.90;;;;;;5040504;28;20401;-89
2022/05/04 05:45:10;;;;;;;8.82;3.35;;;8.10;99.90;;;;;;5044199;28;20120;-89
2022/05/04 05:47:36;;;;;;;8.35;3.40;;;8.20;99.90;;;;;;5048193;28;20154;-89
2022/05/04 05:50:02;;;;;;;10.38;3.40;;;8.20;99.90;;;;;;5051504;28;20035;-89
2022/05/04 05:52:28;;;;;;;10.65;3.10;;;8.20;99.90;;;;;;5042552;28;20125;-89
2022/05/04 05:54:53;;;;;;;9.02;3.75;;;8.30;99.90;;;;;;5043440;28;20040;-90
2022/05/04 05:57:22;;;;;;;10.55;3.00;;;8.30;99.90;;;;;;5042641;28;20147;-89
2022/05/04 05:59:48;;;;;;;10.20;3.10;;;8.40;99.90;;;;;;5048266;28;20039;-87
2022/05/04 06:02:13;;;;;;;10.80;3.42;;;8.40;99.90;;;;;;5061786;28;20058;-88
2022/05/04 06:04:39;;;;;;;7.60;3.15;;;8.40;99.90;;;;;;5053691;28;20358;-89
2022/05/04 06:07:05;;;;;;;8.05;3.20;;;8.40;99.90;;;;;;5044380;28;20303;-89
2022/05/04 06:09:31;;;;;;;10.93;3.42;;;8.50;99.90;;;;;;5052020;28;20044;-88
2022/05/04 06:11:56;;;;;;;8.13;2.80;;;8.50;99.90;;;;;;5044169;28;20040;-89
2022/05/04 06:14:22;;;;;;;13.85;3.30;;;8.50;99.90;;;;;;5043886;28;20040;-89
2022/05/04 06:16:49;;;;;;;10.40;3.35;;;8.50;99.90;;;;;;5061582;28;20377;-89
2022/05/04 06:19:15;;;;;;;9.20;3.20;;;8.50;99.90;;;;;;5041770;28;20505;-90
2022/05/04 06:21:41;;;;;;;8.55;2.90;;;8.60;99.90;;;;;;5057587;28;20262;-90
2022/05/04 06:24:07;;;;;;;10.48;2.88;;;8.60;99.90;;;;;;5057530;28;20048;-90
2022/05/04 06:26:32;;;;;;;7.55;2.95;;;8.70;99.90;;;;;;5054810;28;20128;-90
2022/05/04 06:28:58;;;;;;;8.23;2.90;;;8.80;99.90;;;;;;5043506;28;20536;-90
2022/05/04 06:34:10;;;;;;;6.35;2.55;;;8.90;99.90;;;;;;5062148;28;20044;-88
2022/05/04 06:36:39;;;;;;;7.72;2.70;;;9.00;99.90;;;;;;5078545;28;20075;-88
2022/05/04 06:39:05;;;;;;;6.85;2.35;;;9.10;99.90;;;;;;5062497;28;20039;-91
2022/05/04 06:41:32;;;;;;;9.65;2.80;;;9.10;99.90;;;;;;5057505;28;20504;-88
2022/05/04 06:43:57;;;;;;;6.57;2.53;;;9.10;99.90;;;;;;5056475;28;20037;-88
2022/05/04 06:46:23;;;;;;;7.60;2.88;;;9.20;99.90;;;;;;5058850;28;20040;-88
2022/05/04 06:48:49;;;;;;;7.28;2.40;;;9.20;99.90;;;;;;5047277;28;20047;-88
2022/05/04 06:51:14;;;;;;;7.10;2.72;;;9.40;99.90;;;;;;5061588;28;20055;-88
2022/05/04 06:53:40;;;;;;;6.88;2.40;;;9.70;99.90;;;;;;5060391;28;20040;-89
2022/05/04 06:56:06;;;;;;;7.75;2.50;;;9.60;99.90;;;;;;5046748;28;20043;-90
2022/05/04 06:58:32;;;;;;;8.57;2.50;;;9.40;99.90;;;;;;5049934;28;20028;-89
2022/05/04 07:00:57;;;;;;;9.95;2.75;;;9.50;99.90;;;;;;5061895;28;20107;-88
2022/05/04 07:03:23;;;;;;;7.80;2.25;;;9.50;99.90;;;;;;5049972;28;20116;-88
2022/05/04 07:05:50;;;;;;;5.70;2.50;;;9.70;99.90;;;;;;5057294;28;20075;-89
2022/05/04 07:08:16;;;;;;;6.93;2.22;;;9.90;99.90;;;;;;5058749;28;20047;-88
2022/05/04 07:10:42;;;;;;;5.95;2.50;;;9.80;99.90;;;;;;5046460;28;20035;-88
2022/05/04 07:13:08;;;;;;;9.18;2.60;;;9.60;99.90;;;;;;5065315;28;20047;-89
2022/05/04 07:15:33;;;;;;;11.48;2.85;;;9.60;99.90;;;;;;5048785;28;20043;-89
2022/05/04 07:17:59;;;;;;;6.15;2.47;;;9.70;99.90;;;;;;5056849;28;20035;-89
2022/05/04 07:20:25;;;;;;;5.15;2.10;;;9.60;99.90;;;;;;5041948;28;20098;-89
2022/05/04 07:22:51;;;;;;;7.15;2.53;;;9.50;99.90;;;;;;5039161;28;20040;-90
2022/05/04 07:25:19;;;;;;;6.20;2.45;;;9.80;99.90;;;;;;5044363;28;20028;-90
2022/05/04 07:27:45;;;;;;;7.88;2.70;;;9.70;99.90;;;;;;5042181;28;20112;-91
2022/05/04 07:30:11;;;;;;;9.30;2.50;;;9.90;99.90;;;;;;5057351;28;20205;-89
2022/05/04 07:32:37;;;;;;;7.97;2.60;;;9.90;99.90;;;;;;5059947;28;20048;-91
2022/05/04 07:35:05;;;;;;;8.10;2.58;;;9.90;99.90;;;;;;5058061;28;20060;-90
2022/05/04 07:37:35;;;;;;;5.38;2.33;;;9.50;99.90;;;;;;5042453;28;20740;-88
2022/05/04 07:42:45;;;;;;;5.20;2.53;;;10.10;99.90;;;;;;5052284;28;20812;-88
2022/05/04 07:45:12;;;;;;;7.47;2.30;;;9.90;99.90;;;;;;5041060;28;20043;-91
2022/05/04 07:47:39;;;;;;;9.02;2.50;;;10.20;99.90;;;;;;5042228;28;20036;-87
2022/05/04 07:50:07;;;;;;;7.40;2.90;;;10.30;99.90;;;;;;5055083;28;20124;-87
2022/05/04 07:52:34;;;;;;;6.65;2.25;;;10.50;99.90;;;;;;5032811;28;20036;-90
2022/05/04 07:55:00;;;;;;;7.18;2.67;;;10.80;99.90;;;;;;5031676;28;20036;-89
2022/05/04 07:57:26;;;;;;;7.65;3.00;;;10.20;99.90;;;;;;5033273;28;20877;-90
2022/05/04 08:05:23;;;;;;;6.03;2.50;;;11.10;99.90;;;;;;5051366;28;20079;-88
2022/05/04 08:07:48;;;;;;;5.43;2.20;;;11.40;99.90;;;;;;5037726;28;20040;-88
2022/05/04 08:10:17;;;;;;;6.57;2.25;;;11.40;99.90;;;;;;5036381;28;20451;-89
2022/05/04 08:12:43;;;;;;;7.32;2.40;;;11.40;99.90;;;;;;5031642;28;20050;-90
2022/05/04 08:15:12;;;;;;;7.55;2.47;;;11.60;99.90;;;;;;5035042;28;20033;-88
2022/05/04 08:17:38;;;;;;;8.32;2.30;;;11.30;99.90;;;;;;5045684;28;20258;-89
2022/05/04 08:20:04;;;;;;;6.05;2.67;;;11.00;99.90;;;;;;5034275;28;20055;-89
2022/05/04 08:22:30;;;;;;;7.07;2.60;;;11.60;99.90;;;;;;5072485;28;20064;-89
2022/05/04 08:24:56;;;;;;;8.68;2.60;;;11.40;99.90;;;;;;5039476;28;20076;-89
2022/05/04 08:27:21;;;;;;;7.97;2.83;;;11.10;99.90;;;;;;5039431;28;20040;-89
2022/05/04 08:29:47;;;;;;;7.07;2.45;;;10.80;99.90;;;;;;5041872;28;20505;-88
2022/05/04 08:32:16;;;;;;;9.25;2.60;;;10.50;99.90;;;;;;5038376;28;20479;-89
2022/05/04 08:34:42;;;;;;;11.07;2.70;;;11.10;99.90;;;;;;5041566;28;20036;-90
2022/05/04 08:37:08;;;;;;;5.97;2.72;;;10.90;99.90;;;;;;5040779;28;20044;-91
2022/05/04 08:39:33;;;;;;;7.03;2.47;;;11.10;99.90;;;;;;5042741;28;20128;-88
2022/05/04 08:42:00;;;;;;;11.13;2.92;;;11.30;99.90;;;;;;5059135;28;20101;-89
2022/05/04 08:44:27;;;;;;;9.57;2.40;;;11.00;99.90;;;;;;5045565;28;20044;-89
2022/05/04 08:46:55;;;;;;;9.02;2.50;;;11.00;99.90;;;;;;5058810;28;20059;-89
2022/05/04 08:49:22;;;;;;;7.38;2.55;;;11.10;99.90;;;;;;5036539;28;20040;-89
2022/05/04 08:51:50;;;;;;;4.22;2.10;;;11.10;99.90;;;;;;5074652;28;20044;-90
2022/05/04 08:54:17;;;;;;;9.18;2.47;;;11.40;99.90;;;;;;5038933;28;20496;-89
2022/05/04 08:56:43;;;;;;;8.52;2.60;;;11.20;99.90;;;;;;5039665;28;20049;-90
2022/05/04 08:59:12;;;;;;;8.07;2.53;;;11.30;99.90;;;;;;5057620;28;20517;-90
2022/05/04 09:01:38;;;;;;;5.70;2.42;;;11.20;99.90;;;;;;5034133;28;20317;-90
2022/05/04 09:04:05;;;;;;;8.65;2.42;;;11.40;99.90;;;;;;5040155;28;20041;-89
2022/05/04 09:06:32;;;;;;;8.32;2.60;;;12.10;99.90;;;;;;5036747;28;20037;-88
2022/05/04 09:09:10;;;;;;;9.77;2.88;;;12.10;99.90;;;;;;5041505;28;20446;-88
2022/05/04 09:11:46;;;;;;;9.00;2.60;;;12.60;99.90;;;;;;5053889;28;20116;-89
2022/05/04 09:14:20;;;;;;;5.50;2.45;;;13.10;99.90;;;;;;5052451;28;20067;-88
2022/05/04 09:16:48;;;;;;;7.65;2.60;;;13.50;99.90;;;;;;5034896;28;20045;-89
2022/05/04 09:19:17;;;;;;;10.35;2.90;;;14.00;99.90;;;;;;5052627;28;20049;-89
2022/05/04 09:21:47;;;;;;;6.90;2.50;;;13.60;99.90;;;;;;5033852;28;20080;-90
2022/05/04 09:24:26;;;;;;;6.72;3.00;;;13.10;99.90;;;;;;5035948;28;20113;-89
2022/05/04 09:26:54;;;;;;;7.38;2.58;;;12.50;99.90;;;;;;5038541;28;20040;-91
2022/05/04 09:29:20;;;;;;;15.60;3.05;;;12.70;99.90;;;;;;5038642;28;20328;-90
2022/05/04 09:31:47;;;;;;;7.25;2.42;;;12.50;99.90;;;;;;5034879;28;20040;-90
2022/05/04 09:34:13;;;;;;;9.63;2.38;;;11.90;99.90;;;;;;5044469;28;20041;-89
2022/05/04 09:45:14;;;;;;;7.40;3.00;;;11.50;99.90;;;;;;5051423;28;20159;-89
2022/05/04 09:47:45;;;;;;;10.88;2.88;;;11.60;99.90;;;;;;5039467;28;20054;-89
2022/05/04 09:50:15;;;;;;;8.05;2.70;;;11.40;99.90;;;;;;5054870;28;20040;-89
2022/05/04 09:52:48;;;;;;;6.18;2.40;;;11.70;99.90;;;;;;5069302;28;20040;-90
2022/05/04 09:55:19;;;;;;;6.57;2.33;;;13.20;99.90;;;;;;5076242;28;20050;-89
2022/05/04 09:57:46;;;;;;;9.75;2.88;;;13.90;99.90;;;;;;5042291;28;20029;-88
2022/05/04 10:00:19;;;;;;;6.88;2.83;;;13.40;99.90;;;;;;5053847;28;20024;-88
2022/05/04 10:02:46;;;;;;;9.73;2.88;;;14.30;99.90;;;;;;5041775;28;20485;-88
2022/05/04 10:05:12;;;;;;;7.20;2.58;;;15.20;99.90;;;;;;5034494;28;20041;-88
2022/05/04 10:07:39;;;;;;;7.22;2.40;;;15.30;99.90;;;;;;5051741;28;20436;-87
2022/05/04 10:10:09;;;;;;;7.07;2.50;;;14.60;99.90;;;;;;5059870;28;20035;-89
2022/05/04 10:12:39;;;;;;;6.15;2.38;;;14.20;99.90;;;;;;5056387;28;20028;-89
2022/05/04 10:15:12;;;;;;;7.20;2.47;;;13.70;99.90;;;;;;5052946;28;20040;-88
2022/05/04 10:17:53;;;;;;;7.63;2.55;;;13.60;99.90;;;;;;5043863;28;20327;-89
2022/05/04 10:20:22;;;;;;;9.18;2.78;;;13.30;99.90;;;;;;5053143;28;20056;-89
2022/05/04 10:22:51;;;;;;;6.47;2.35;;;13.00;99.90;;;;;;5034426;28;20041;-88
2022/05/04 10:25:21;;;;;;;8.02;2.83;;;12.60;99.90;;;;;;5050067;28;20033;-87
2022/05/04 10:27:46;;;;;;;8.88;2.78;;;12.90;99.90;;;;;;5059051;28;20446;-89
2022/05/04 10:30:31;;;;;;;8.30;2.92;;;12.40;99.90;;;;;;5038247;28;20037;-87
2022/05/04 10:33:09;;;;;;;8.53;2.43;;;12.90;99.90;;;;;;5052209;28;20040;-88
2022/05/04 10:35:38;;;;;;;6.65;2.60;;;13.40;99.90;;;;;;5039267;28;20115;-89
2022/05/04 10:38:30;;;;;;;10.10;2.72;;;13.40;99.90;;;;;;5036795;28;20035;-89
2022/05/04 10:41:02;;;;;;;9.90;3.00;;;13.10;99.90;;;;;;5036593;28;20113;-90
2022/05/04 10:43:50;;;;;;;7.28;2.83;;;12.40;99.90;;;;;;5037558;28;20498;-89
2022/05/04 10:46:20;;;;;;;7.80;2.60;;;12.60;99.90;;;;;;5053275;28;20040;-88
2022/05/04 10:48:58;;;;;;;6.57;2.67;;;13.50;99.90;;;;;;5055702;28;20044;-88
2022/05/04 10:51:29;;;;;;;6.90;2.95;;;13.50;99.90;;;;;;5056411;28;20055;-88
2022/05/04 10:54:04;;;;;;;6.10;2.20;;;14.20;99.90;;;;;;5033211;28;20045;-87
2022/05/04 10:56:56;;;;;;;;;;;13.90;99.90;;;;;;5031453;28;20057;-88
2022/05/04 10:59:31;;;;;;;5.70;2.35;;;13.70;99.90;;;;;;5028630;28;20028;-88
2022/05/04 11:02:06;;;;;;;11.48;2.60;;;14.00;99.90;;;;;;5037826;28;20537;-88
2022/05/04 11:04:33;;;;;;;8.40;2.70;;;13.00;99.90;;;;;;5052677;28;20482;-90
2022/05/04 11:06:58;;;;;;;5.68;2.63;;;12.00;99.90;;;;;;5035816;28;20045;-89
2022/05/04 11:09:29;;;;;;;5.15;2.60;;;11.50;99.90;;;;;;5037857;28;20041;-89
2022/05/04 11:11:56;;;;;;;5.82;2.28;;;11.80;99.90;;;;;;5036467;28;20145;-89
2022/05/04 11:14:25;;;;;;;8.25;2.63;;;12.50;99.90;;;;;;5046067;28;20045;-88
2022/05/04 11:16:56;;;;;;;6.13;2.63;;;13.10;99.90;;;;;;5032680;28;20170;-87
2022/05/04 11:19:24;;;;;;;4.40;2.58;;;14.00;99.90;;;;;;5040373;28;20071;-88
2022/05/04 11:21:50;;;;;;;8.95;2.85;;;14.50;99.90;;;;;;5041337;28;20084;-88
2022/05/04 11:24:17;;;;;;;8.52;3.15;;;14.60;99.90;;;;;;5044103;28;20078;-87
2022/05/04 11:26:45;;;;;;;8.65;2.83;;;13.70;99.90;;;;;;5051096;28;20037;-88
2022/05/04 11:29:11;;;;;;;6.03;2.70;;;13.70;99.90;;;;;;5042855;28;20124;-90
2022/05/04 11:31:45;;;;;;;5.95;2.80;;;13.60;99.90;;;;;;5038762;28;20127;-88
2022/05/04 11:34:15;;;;;;;7.20;2.70;;;13.20;99.90;;;;;;5041357;28;20036;-86
2022/05/04 11:36:46;;;;;;;6.63;2.85;;;13.30;99.90;;;;;;5055684;28;20044;-87
2022/05/04 11:39:16;;;;;;;7.75;2.75;;;13.40;99.90;;;;;;5052642;28;20033;-88
2022/05/04 11:41:45;;;;;;;8.48;3.00;;;13.30;99.90;;;;;;5052838;28;20139;-88
2022/05/04 11:44:11;;;;;;;6.82;2.80;;;14.10;99.90;;;;;;5032316;28;20033;-88
2022/05/04 11:46:47;;;;;;;8.70;2.95;;;13.80;99.90;;;;;;5031294;28;20049;-88
2022/05/04 11:49:14;;;;;;;8.13;2.90;;;13.10;99.90;;;;;;5038549;28;20028;-88
2022/05/04 11:51:41;;;;;;;5.22;2.40;;;12.60;99.90;;;;;;5032218;28;20039;-88
2022/05/04 11:54:06;;;;;;;9.55;3.05;;;12.80;99.90;;;;;;5046818;28;20125;-88
2022/05/04 11:56:39;;;;;;;7.25;2.60;;;13.50;99.90;;;;;;5020948;28;20135;-87
2022/05/04 11:59:07;;;;;;;5.68;2.67;;;14.40;99.90;;;;;;5027527;28;20085;-88
2022/05/04 12:01:37;;;;;;;8.27;2.65;;;15.30;99.90;;;;;;5035107;28;20044;-87
2022/05/04 12:04:04;;;;;;;6.05;2.72;;;15.60;99.90;;;;;;5027517;28;20133;-87
2022/05/04 12:06:31;;;;;;;4.88;2.30;;;15.60;99.90;;;;;;5057700;28;20056;-88
2022/05/04 12:08:59;;;;;;;4.95;2.55;;;16.00;99.90;;;;;;5052028;28;20095;-87
2022/05/04 12:11:25;;;;;;;5.72;2.45;;;14.70;99.90;;;;;;5036683;28;20120;-89
2022/05/04 12:13:52;;;;;;;5.65;2.45;;;14.50;99.90;;;;;;5040203;28;20132;-86
2022/05/04 12:16:19;;;;;;;5.57;2.53;;;15.20;99.90;;;;;;5043386;28;20375;-88
2022/05/04 12:18:47;;;;;;;9.13;2.60;;;15.90;99.90;;;;;;5040880;28;20064;-90
2022/05/04 12:21:16;;;;;;;6.38;2.50;;;16.00;99.90;;;;;;5050737;28;20545;-88
2022/05/04 12:23:47;;;;;;;5.95;2.75;;;15.20;99.90;;;;;;5034831;28;20473;-89
2022/05/04 12:26:14;;;;;;;6.75;2.60;;;14.20;99.90;;;;;;5032148;28;20059;-89
2022/05/04 12:28:42;;;;;;;6.65;2.85;;;15.20;99.90;;;;;;5049685;28;20036;-87
2022/05/04 12:33:56;;;;;;;5.25;2.60;;;14.30;99.90;;;;;;5050001;28;20064;-89
2022/05/04 12:36:25;;;;;;;6.68;2.90;;;15.00;99.90;;;;;;5051293;28;20087;-89
2022/05/04 12:38:52;;;;;;;6.65;2.72;;;15.00;99.90;;;;;;5067153;28;20568;-88
2022/05/04 12:41:21;;;;;;;7.75;2.60;;;14.60;99.90;;;;;;5049790;28;20040;-89
2022/05/04 12:43:49;;;;;;;5.75;2.83;;;14.50;99.90;;;;;;5049315;28;20051;-90
2022/05/04 12:46:16;;;;;;;7.47;2.90;;;14.70;99.90;;;;;;5035256;28;20044;-88
2022/05/04 12:48:44;;;;;;;8.40;3.00;;;14.90;99.90;;;;;;5034620;28;20665;-87
2022/05/04 12:51:11;;;;;;;6.72;2.90;;;14.90;99.90;;;;;;5055889;28;20163;-87
2022/05/04 12:53:40;;;;;;;7.78;3.05;;;15.10;99.90;;;;;;5038582;28;20628;-88
2022/05/04 12:58:54;;;;;;;7.53;2.90;;;14.80;99.90;;;;;;5046413;28;20043;-89
2022/05/04 13:01:24;;;;;;;8.77;2.53;;;15.30;99.90;;;;;;5035475;28;20550;-89
2022/05/04 13:03:50;;;;;;;6.07;3.00;;;16.50;99.90;;;;;;5046218;28;20059;-88
2022/05/04 13:06:17;;;;;;;6.90;2.70;;;15.80;99.90;;;;;;5031517;28;20421;-88
2022/05/04 13:08:51;;;;;;;7.07;2.63;;;16.00;99.90;;;;;;5029860;28;20125;-88
2022/05/04 13:11:17;;;;;;;6.35;2.80;;;15.70;99.90;;;;;;5028655;28;20044;-89
2022/05/04 13:13:43;;;;;;;6.53;2.72;;;15.10;99.90;;;;;;5067753;28;20049;-88
2022/05/04 13:16:09;;;;;;;5.57;3.00;;;15.50;99.90;;;;;;5049562;28;20410;-87
2022/05/04 13:18:34;;;;;;;6.43;2.58;;;16.10;99.90;;;;;;5049765;28;20033;-88
2022/05/04 13:21:00;;;;;;;5.57;2.63;;;16.50;99.90;;;;;;5053226;28;20048;-88
2022/05/04 13:23:28;;;;;;;7.50;2.75;;;16.50;99.90;;;;;;5031681;28;20108;-88
2022/05/04 13:25:54;;;;;;;6.85;3.13;;;16.60;99.90;;;;;;5050959;28;20876;-88
2022/05/04 13:28:20;;;;;;;5.68;2.60;;;15.40;99.90;;;;;;5034681;28;20047;-88
2022/05/04 13:30:46;;;;;;;7.20;2.75;;;15.30;99.90;;;;;;5038973;28;20082;-88